createdAt,value
2023-10-09T00:01:06.428Z,72.20
2023-10-09T00:09:58.939Z,72.49
2023-10-09T00:18:30.876Z,73.45
2023-10-09T00:27:15.321Z,73.52
2023-10-09T00:35:45.088Z,73.72
2023-10-09T00:44:09.061Z,74.02
2023-10-09T00:52:41.599Z,74.68
2023-10-09T01:01:06.159Z,75.45
2023-10-09T01:09:29.562Z,75.84
2023-10-09T01:17:52.649Z,75.65
2023-10-09T01:26:15.749Z,76.61
2023-10-09T01:34:51.302Z,76.97
2023-10-09T01:43:20.152Z,76.68
2023-10-09T01:51:43.199Z,77.11
2023-10-09T02:00:08.511Z,77.05
2023-10-09T02:08:38.249Z,78.41
2023-10-09T02:17:04.110Z,78.33
2023-10-09T02:25:35.487Z,78.15
2023-10-09T02:33:58.497Z,78.46
2023-10-09T02:42:24.873Z,78.85
2023-10-09T02:50:48.517Z,80.50
2023-10-09T02:59:11.628Z,82.03
2023-10-09T03:07:35.521Z,80.63
2023-10-09T03:15:58.577Z,80.29
2023-10-09T03:24:23.879Z,79.81
2023-10-09T03:32:52.055Z,79.72
2023-10-09T03:41:17.462Z,79.90
2023-10-09T03:49:40.870Z,80.06
2023-10-09T03:58:04.043Z,79.91
2023-10-09T04:06:34.912Z,79.82
2023-10-09T04:15:04.867Z,80.07
2023-10-09T04:23:36.782Z,80.40
2023-10-09T04:32:02.070Z,81.28
2023-10-09T04:41:03.566Z,80.77
2023-10-09T04:49:29.117Z,80.80
2023-10-09T04:58:03.174Z,80.75
2023-10-09T05:06:55.831Z,80.57
2023-10-09T05:15:19.401Z,80.63
2023-10-09T05:24:11.479Z,81.26
2023-10-09T05:32:44.502Z,81.55
2023-10-09T05:41:27.429Z,81.56
2023-10-09T05:49:58.757Z,81.65
2023-10-09T05:58:40.225Z,82.08
2023-10-09T06:07:13.644Z,81.96
2023-10-09T06:15:49.034Z,82.32
2023-10-09T06:24:19.259Z,81.88
2023-10-09T06:32:59.486Z,82.06
2023-10-09T06:41:36.292Z,81.99
2023-10-09T06:50:34.710Z,82.10
2023-10-09T06:59:06.431Z,82.07
2023-10-09T07:07:36.634Z,82.21
2023-10-09T07:16:19.750Z,81.80
2023-10-09T07:24:51.024Z,81.96
2023-10-09T07:33:14.677Z,81.64
2023-10-09T07:41:40.651Z,81.45
2023-10-09T07:50:05.147Z,81.02
2023-10-09T07:58:30.053Z,80.37
2023-10-09T08:07:59.990Z,78.71
2023-10-09T08:15:52.616Z,75.76
2023-10-09T08:24:34.711Z,75.57
2023-10-09T08:41:31.455Z,70.47
2023-10-09T08:49:54.734Z,70.03
2023-10-09T08:58:32.345Z,70.77
2023-10-09T09:06:55.341Z,67.60
2023-10-09T09:15:22.563Z,64.03
2023-10-09T09:23:58.504Z,61.90
2023-10-09T09:32:39.790Z,61.25
2023-10-09T09:41:08.750Z,60.78
2023-10-09T09:49:32.972Z,60.57
2023-10-09T09:57:58.544Z,61.20
2023-10-09T10:06:22.890Z,56.27
2023-10-09T10:15:19.958Z,56.83
2023-10-09T10:23:48.557Z,57.64
2023-10-09T10:32:12.220Z,57.14
2023-10-09T10:41:01.242Z,56.10
2023-10-09T10:49:26.543Z,56.49
2023-10-09T10:57:57.267Z,57.09
2023-10-09T11:06:38.845Z,57.14
2023-10-09T11:15:09.090Z,58.73
2023-10-09T11:23:52.951Z,60.51
2023-10-09T11:32:24.772Z,61.59
2023-10-09T11:40:54.694Z,62.00
2023-10-09T11:59:39.102Z,63.91
2023-10-09T12:08:03.958Z,64.64
2023-10-09T12:16:30.051Z,65.60
2023-10-09T12:24:54.265Z,65.98
2023-10-09T12:33:19.505Z,66.81
2023-10-09T12:41:42.759Z,68.13
2023-10-09T12:50:15.024Z,68.58
2023-10-09T12:58:41.857Z,69.74
2023-10-09T13:07:08.720Z,70.04
2023-10-09T13:15:43.844Z,71.07
2023-10-09T13:24:14.423Z,71.44
2023-10-09T13:32:38.066Z,71.96
2023-10-09T13:41:02.529Z,72.72
2023-10-09T13:49:31.316Z,73.51
2023-10-09T13:57:58.746Z,75.40
2023-10-09T14:06:31.449Z,75.56
2023-10-09T14:14:57.220Z,75.55
2023-10-09T14:23:21.832Z,77.09
2023-10-09T14:31:50.724Z,77.00
2023-10-09T14:40:14.659Z,76.13
2023-10-09T14:48:39.187Z,76.61
2023-10-09T14:57:02.137Z,77.16
2023-10-09T15:05:25.140Z,78.22
2023-10-09T15:13:48.329Z,78.82
2023-10-09T15:22:12.715Z,79.81
2023-10-09T15:30:35.789Z,80.43
2023-10-09T15:39:00.527Z,81.70
2023-10-09T15:47:23.662Z,81.26
2023-10-09T15:55:47.532Z,81.21
2023-10-09T16:04:14.304Z,81.05
2023-10-09T16:12:41.417Z,80.81
2023-10-09T16:21:10.308Z,80.82
2023-10-09T16:29:33.945Z,81.02
2023-10-09T16:37:59.499Z,81.33
2023-10-09T16:46:23.579Z,81.35
2023-10-09T16:54:46.607Z,81.73
2023-10-09T17:03:10.563Z,81.53
2023-10-09T17:11:38.121Z,81.44
2023-10-09T17:20:11.249Z,81.01
2023-10-09T17:28:34.301Z,81.94
2023-10-09T17:36:59.477Z,82.82
2023-10-09T17:45:24.422Z,82.93
2023-10-09T17:53:48.017Z,83.11
2023-10-09T18:02:17.728Z,83.63
2023-10-09T18:10:44.946Z,83.58
2023-10-09T18:19:13.647Z,83.43
2023-10-09T18:27:37.504Z,83.78
2023-10-09T18:36:10.839Z,84.13
2023-10-09T18:44:35.387Z,84.13
2023-10-09T18:53:03.616Z,84.82
2023-10-09T19:01:31.360Z,85.11
2023-10-09T19:09:56.442Z,85.91
2023-10-09T19:18:24.935Z,86.24
2023-10-09T19:26:50.729Z,86.99
2023-10-09T19:35:14.530Z,86.90
2023-10-09T19:43:40.762Z,87.18
2023-10-09T19:52:06.428Z,87.57
2023-10-09T20:00:32.456Z,87.54
2023-10-09T20:08:55.725Z,87.51
2023-10-09T20:17:18.759Z,87.59
2023-10-09T20:25:41.680Z,88.00
2023-10-09T20:34:10.283Z,88.20
2023-10-09T20:42:33.234Z,88.64
2023-10-09T20:50:56.328Z,88.84
2023-10-09T20:59:20.006Z,88.52
2023-10-09T21:07:47.397Z,88.96
2023-10-09T21:16:13.596Z,89.10
2023-10-09T21:24:37.479Z,89.11
2023-10-09T21:33:00.785Z,88.84
2023-10-09T21:41:24.079Z,89.43
2023-10-09T21:49:47.075Z,89.36
2023-10-09T21:58:11.906Z,89.48
2023-10-09T22:06:34.984Z,89.20
2023-10-09T22:14:58.434Z,89.25
2023-10-09T22:23:32.397Z,89.55
2023-10-09T22:31:56.056Z,89.93
2023-10-09T22:40:27.748Z,89.35
2023-10-09T22:49:01.029Z,88.97
2023-10-09T22:57:24.019Z,88.83
2023-10-09T23:05:47.643Z,88.94
2023-10-09T23:14:16.850Z,88.08
2023-10-09T23:22:49.752Z,88.06
2023-10-09T23:31:23.506Z,88.10
2023-10-09T23:39:56.235Z,88.04
2023-10-09T23:48:25.129Z,88.12
2023-10-09T23:57:00.307Z,88.30
